sensor_id;sensor_type;location;lat;lon;timestamp;pressure;altitude;pressure_sealevel;temperature;humidity
55068;BME280;40965;52.368;9.712;2023-04-10T00:00:17;101733.94;;;4.89;100.00
55068;BME280;40965;52.368;9.712;2023-04-10T00:02:44;101731.31;;;4.88;100.00
55068;BME280;40965;52.368;9.712;2023-04-10T00:05:11;101737.28;;;4.85;100.00
55068;BME280;40965;52.368;9.712;2023-04-10T00:07:37;101748.41;;;4.81;100.00
55068;BME280;40965;52.368;9.712;2023-04-10T00:10:04;101749.19;;;4.78;100.00
55068;BME280;40965;52.368;9.712;2023-04-10T00:12:31;101744.69;;;4.74;100.00
55068;BME280;40965;52.368;9.712;2023-04-10T00:14:57;101745.47;;;4.72;100.00
55068;BME280;40965;52.368;9.712;2023-04-10T00:17:24;101741.84;;;4.67;100.00
55068;BME280;40965;52.368;9.712;2023-04-10T00:19:50;101742.69;;;4.66;100.00
55068;BME280;40965;52.368;9.712;2023-04-10T00:22:17;101728.84;;;4.65;100.00
55068;BME280;40965;52.368;9.712;2023-04-10T00:24:43;101727.03;;;4.62;100.00
55068;BME280;40965;52.368;9.712;2023-04-10T00:27:10;101727.75;;;4.58;100.00
55068;BME280;40965;52.368;9.712;2023-04-10T00:29:36;101717.28;;;4.55;100.00
55068;BME280;40965;52.368;9.712;2023-04-10T00:32:03;101724.03;;;4.50;100.00
55068;BME280;40965;52.368;9.712;2023-04-10T00:34:30;101712.69;;;4.46;100.00
55068;BME280;40965;52.368;9.712;2023-04-10T00:36:57;101712.59;;;4.43;100.00
55068;BME280;40965;52.368;9.712;2023-04-10T00:39:24;101707.31;;;4.42;100.00
55068;BME280;40965;52.368;9.712;2023-04-10T00:41:50;101710.78;;;4.41;100.00
55068;BME280;40965;52.368;9.712;2023-04-10T00:44:20;101708.97;;;4.38;100.00
55068;BME280;40965;52.368;9.712;2023-04-10T00:46:47;101708.00;;;4.36;100.00
55068;BME280;40965;52.368;9.712;2023-04-10T00:49:13;101704.44;;;4.33;100.00
55068;BME280;40965;52.368;9.712;2023-04-10T00:51:42;101706.09;;;4.30;100.00
55068;BME280;40965;52.368;9.712;2023-04-10T00:54:09;101708.53;;;4.26;100.00
55068;BME280;40965;52.368;9.712;2023-04-10T00:56:36;101708.53;;;4.26;100.00
55068;BME280;40965;52.368;9.712;2023-04-10T00:59:02;101712.66;;;4.21;100.00
55068;BME280;40965;52.368;9.712;2023-04-10T01:01:29;101716.00;;;4.17;100.00
55068;BME280;40965;52.368;9.712;2023-04-10T01:03:56;101717.63;;;4.14;100.00
55068;BME280;40965;52.368;9.712;2023-04-10T01:06:41;101713.31;;;4.13;100.00
55068;BME280;40965;52.368;9.712;2023-04-10T01:09:34;101718.44;;;4.12;100.00
55068;BME280;40965;52.368;9.712;2023-04-10T01:12:14;101715.63;;;4.06;100.00
55068;BME280;40965;52.368;9.712;2023-04-10T01:15:11;101713.75;;;4.02;100.00
55068;BME280;40965;52.368;9.712;2023-04-10T01:18:00;101718.00;;;4.00;100.00
55068;BME280;40965;52.368;9.712;2023-04-10T01:20:35;101716.13;;;3.95;100.00
55068;BME280;40965;52.368;9.712;2023-04-10T01:26:10;101719.31;;;3.88;100.00
55068;BME280;40965;52.368;9.712;2023-04-10T01:28:50;101714.00;;;3.84;100.00
55068;BME280;40965;52.368;9.712;2023-04-10T01:31:36;101722.53;;;3.81;100.00
55068;BME280;40965;52.368;9.712;2023-04-10T01:34:16;101721.53;;;3.77;100.00
55068;BME280;40965;52.368;9.712;2023-04-10T01:36:51;101718.91;;;3.76;100.00
55068;BME280;40965;52.368;9.712;2023-04-10T01:39:20;101719.72;;;3.75;100.00
55068;BME280;40965;52.368;9.712;2023-04-10T01:41:51;101710.06;;;3.71;100.00
55068;BME280;40965;52.368;9.712;2023-04-10T01:44:20;101712.91;;;3.77;100.00
55068;BME280;40965;52.368;9.712;2023-04-10T01:46:54;101706.81;;;3.76;100.00
55068;BME280;40965;52.368;9.712;2023-04-10T01:49:26;101710.31;;;3.77;100.00
55068;BME280;40965;52.368;9.712;2023-04-10T01:51:55;101705.91;;;3.74;100.00
55068;BME280;40965;52.368;9.712;2023-04-10T01:54:27;101699.75;;;3.72;100.00
55068;BME280;40965;52.368;9.712;2023-04-10T01:57:00;101706.72;;;3.73;100.00
55068;BME280;40965;52.368;9.712;2023-04-10T01:59:28;101693.59;;;3.69;100.00
55068;BME280;40965;52.368;9.712;2023-04-10T02:01:59;101694.34;;;3.66;100.00
55068;BME280;40965;52.368;9.712;2023-04-10T02:04:26;101702.03;;;3.63;100.00
55068;BME280;40965;52.368;9.712;2023-04-10T02:07:22;101694.25;;;3.63;100.00
55068;BME280;40965;52.368;9.712;2023-04-10T02:09:59;101690.72;;;3.61;100.00
55068;BME280;40965;52.368;9.712;2023-04-10T02:12:35;101693.25;;;3.59;100.00
55068;BME280;40965;52.368;9.712;2023-04-10T02:15:06;101695.84;;;3.59;100.00
55068;BME280;40965;52.368;9.712;2023-04-10T02:17:34;101688.91;;;3.58;100.00
55068;BME280;40965;52.368;9.712;2023-04-10T02:20:02;101682.84;;;3.58;100.00
55068;BME280;40965;52.368;9.712;2023-04-10T02:22:30;101679.44;;;3.59;100.00
55068;BME280;40965;52.368;9.712;2023-04-10T02:24:57;101681.09;;;3.57;100.00
55068;BME280;40965;52.368;9.712;2023-04-10T02:27:29;101676.72;;;3.56;100.00
55068;BME280;40965;52.368;9.712;2023-04-10T02:29:56;101676.72;;;3.56;100.00
55068;BME280;40965;52.368;9.712;2023-04-10T02:32:23;101668.84;;;3.53;100.00
55068;BME280;40965;52.368;9.712;2023-04-10T02:34:49;101663.69;;;3.53;100.00
55068;BME280;40965;52.368;9.712;2023-04-10T02:37:16;101666.31;;;3.54;100.00
55068;BME280;40965;52.368;9.712;2023-04-10T02:39:42;101670.56;;;3.52;100.00
55068;BME280;40965;52.368;9.712;2023-04-10T02:42:09;101675.66;;;3.51;100.00
55068;BME280;40965;52.368;9.712;2023-04-10T02:44:36;101668.03;;;3.54;100.00
55068;BME280;40965;52.368;9.712;2023-04-10T02:47:03;101663.84;;;3.57;100.00
55068;BME280;40965;52.368;9.712;2023-04-10T02:49:31;101664.81;;;3.61;100.00
55068;BME280;40965;52.368;9.712;2023-04-10T02:51:59;101659.56;;;3.58;100.00
55068;BME280;40965;52.368;9.712;2023-04-10T02:54:25;101660.38;;;3.57;100.00
55068;BME280;40965;52.368;9.712;2023-04-10T02:56:52;101655.16;;;3.55;100.00
55068;BME280;40965;52.368;9.712;2023-04-10T02:59:19;101655.19;;;3.57;100.00
55068;BME280;40965;52.368;9.712;2023-04-10T03:01:45;101650.78;;;3.54;100.00
55068;BME280;40965;52.368;9.712;2023-04-10T03:04:12;101651.56;;;3.52;100.00
55068;BME280;40965;52.368;9.712;2023-04-10T03:06:38;101657.69;;;3.54;100.00
55068;BME280;40965;52.368;9.712;2023-04-10T03:09:05;101652.50;;;3.54;100.00
55068;BME280;40965;52.368;9.712;2023-04-10T03:11:31;101655.97;;;3.54;100.00
55068;BME280;40965;52.368;9.712;2023-04-10T03:13:58;101656.69;;;3.50;100.00
55068;BME280;40965;52.368;9.712;2023-04-10T03:16:24;101647.09;;;3.47;100.00
55068;BME280;40965;52.368;9.712;2023-04-10T03:18:52;101644.47;;;3.46;100.00
55068;BME280;40965;52.368;9.712;2023-04-10T03:21:18;101644.28;;;3.41;100.00
55068;BME280;40965;52.368;9.712;2023-04-10T03:23:45;101640.63;;;3.36;100.00
55068;BME280;40965;52.368;9.712;2023-04-10T03:26:12;101636.22;;;3.34;100.00
55068;BME280;40965;52.368;9.712;2023-04-10T03:28:38;101632.78;;;3.33;100.00
55068;BME280;40965;52.368;9.712;2023-04-10T03:31:05;101635.25;;;3.30;100.00
55068;BME280;40965;52.368;9.712;2023-04-10T03:33:32;101633.44;;;3.27;100.00
55068;BME280;40965;52.368;9.712;2023-04-10T03:35:58;101639.44;;;3.26;100.00
55068;BME280;40965;52.368;9.712;2023-04-10T03:38:25;101626.38;;;3.23;100.00
55068;BME280;40965;52.368;9.712;2023-04-10T03:40:51;101632.59;;;3.28;100.00
55068;BME280;40965;52.368;9.712;2023-04-10T03:43:18;101626.53;;;3.28;100.00
55068;BME280;40965;52.368;9.712;2023-04-10T03:45:44;101624.72;;;3.25;100.00
55068;BME280;40965;52.368;9.712;2023-04-10T03:48:12;101627.31;;;3.25;100.00
55068;BME280;40965;52.368;9.712;2023-04-10T03:50:38;101629.84;;;3.24;100.00
55068;BME280;40965;52.368;9.712;2023-04-10T03:53:05;101624.69;;;3.24;100.00
55068;BME280;40965;52.368;9.712;2023-04-10T03:55:31;101629.81;;;3.22;100.00
55068;BME280;40965;52.368;9.712;2023-04-10T03:57:58;101621.00;;;3.17;100.00
55068;BME280;40965;52.368;9.712;2023-04-10T04:00:26;101621.75;;;3.14;100.00
55068;BME280;40965;52.368;9.712;2023-04-10T04:02:53;101611.28;;;3.11;100.00
55068;BME280;40965;52.368;9.712;2023-04-10T04:05:19;101614.72;;;3.10;100.00
55068;BME280;40965;52.368;9.712;2023-04-10T04:07:46;101616.41;;;3.10;100.00
55068;BME280;40965;52.368;9.712;2023-04-10T04:10:13;101621.53;;;3.08;100.00
55068;BME280;40965;52.368;9.712;2023-04-10T04:12:39;101617.16;;;3.07;100.00
55068;BME280;40965;52.368;9.712;2023-04-10T04:15:06;101623.34;;;3.11;100.00
55068;BME280;40965;52.368;9.712;2023-04-10T04:17:33;101618.25;;;3.14;100.00
55068;BME280;40965;52.368;9.712;2023-04-10T04:20:02;101619.13;;;3.13;100.00
55068;BME280;40965;52.368;9.712;2023-04-10T04:22:28;101612.88;;;3.08;100.00
55068;BME280;40965;52.368;9.712;2023-04-10T04:24:55;101618.06;;;3.08;100.00
55068;BME280;40965;52.368;9.712;2023-04-10T04:27:21;101610.16;;;3.05;100.00
55068;BME280;40965;52.368;9.712;2023-04-10T04:29:48;101605.91;;;3.05;100.00
55068;BME280;40965;52.368;9.712;2023-04-10T04:32:14;101604.94;;;3.03;100.00
55068;BME280;40965;52.368;9.712;2023-04-10T04:34:41;101614.47;;;3.04;100.00
55068;BME280;40965;52.368;9.712;2023-04-10T04:37:07;101617.94;;;3.05;100.00
55068;BME280;40965;52.368;9.712;2023-04-10T04:39:34;101617.81;;;3.02;100.00
55068;BME280;40965;52.368;9.712;2023-04-10T04:42:01;101611.84;;;3.03;100.00
55068;BME280;40965;52.368;9.712;2023-04-10T04:44:27;101617.06;;;3.04;100.00
55068;BME280;40965;52.368;9.712;2023-04-10T04:46:53;101622.22;;;3.04;100.00
55068;BME280;40965;52.368;9.712;2023-04-10T04:49:20;101614.47;;;3.04;100.00
55068;BME280;40965;52.368;9.712;2023-04-10T04:51:46;101620.47;;;3.03;100.00
55068;BME280;40965;52.368;9.712;2023-04-10T04:54:13;101624.81;;;3.04;100.00
55068;BME280;40965;52.368;9.712;2023-04-10T04:56:39;101628.31;;;3.06;100.00
55068;BME280;40965;52.368;9.712;2023-04-10T04:59:06;101621.47;;;3.07;100.00
55068;BME280;40965;52.368;9.712;2023-04-10T05:01:32;101623.34;;;3.11;100.00
55068;BME280;40965;52.368;9.712;2023-04-10T05:03:59;101624.28;;;3.13;100.00
55068;BME280;40965;52.368;9.712;2023-04-10T05:06:25;101625.44;;;3.21;100.00
55068;BME280;40965;52.368;9.712;2023-04-10T05:08:53;101623.91;;;3.26;100.00
55068;BME280;40965;52.368;9.712;2023-04-10T05:11:23;101620.56;;;3.29;100.00
55068;BME280;40965;52.368;9.712;2023-04-10T05:13:49;101626.78;;;3.34;100.00
55068;BME280;40965;52.368;9.712;2023-04-10T05:16:16;101620.13;;;3.41;100.00
55068;BME280;40965;52.368;9.712;2023-04-10T05:18:42;101621.25;;;3.49;100.00
55068;BME280;40965;52.368;9.712;2023-04-10T05:21:09;101616.34;;;3.57;100.00
55068;BME280;40965;52.368;9.712;2023-04-10T05:23:35;101608.84;;;3.64;100.00
55068;BME280;40965;52.368;9.712;2023-04-10T05:26:02;101613.34;;;3.70;100.00
55068;BME280;40965;52.368;9.712;2023-04-10T05:28:30;101606.72;;;3.77;100.00
55068;BME280;40965;52.368;9.712;2023-04-10T05:30:56;101611.25;;;3.84;100.00
55068;BME280;40965;52.368;9.712;2023-04-10T05:33:23;101614.06;;;3.90;100.00
55068;BME280;40965;52.368;9.712;2023-04-10T05:35:51;101609.97;;;3.97;100.00
55068;BME280;40965;52.368;9.712;2023-04-10T05:38:18;101623.13;;;4.03;100.00
55068;BME280;40965;52.368;9.712;2023-04-10T05:40:44;101619.91;;;4.10;100.00
55068;BME280;40965;52.368;9.712;2023-04-10T05:43:11;101623.56;;;4.17;100.00
55068;BME280;40965;52.368;9.712;2023-04-10T05:45:37;101621.13;;;4.22;100.00
55068;BME280;40965;52.368;9.712;2023-04-10T05:48:04;101628.22;;;4.27;100.00
55068;BME280;40965;52.368;9.712;2023-04-10T05:50:31;101624.97;;;4.33;100.00
55068;BME280;40965;52.368;9.712;2023-04-10T05:52:57;101621.59;;;4.36;100.00
55068;BME280;40965;52.368;9.712;2023-04-10T05:55:24;101625.25;;;4.42;100.00
55068;BME280;40965;52.368;9.712;2023-04-10T05:57:50;101622.00;;;4.50;100.00
55068;BME280;40965;52.368;9.712;2023-04-10T06:00:17;101628.22;;;4.55;100.00
55068;BME280;40965;52.368;9.712;2023-04-10T06:02:44;101619.75;;;4.59;100.00
55068;BME280;40965;52.368;9.712;2023-04-10T06:05:10;101626.84;;;4.66;100.00
55068;BME280;40965;52.368;9.712;2023-04-10T06:07:37;101624.50;;;4.74;100.00
55068;BME280;40965;52.368;9.712;2023-04-10T06:10:04;101623.00;;;4.82;100.00
55068;BME280;40965;52.368;9.712;2023-04-10T06:12:30;101618.88;;;4.89;100.00
55068;BME280;40965;52.368;9.712;2023-04-10T06:14:57;101613.03;;;4.94;100.00
55068;BME280;40965;52.368;9.712;2023-04-10T06:17:23;101613.13;;;4.99;100.00
55068;BME280;40965;52.368;9.712;2023-04-10T06:19:52;101609.84;;;5.05;100.00
55068;BME280;40965;52.368;9.712;2023-04-10T06:22:20;101613.50;;;5.11;100.00
55068;BME280;40965;52.368;9.712;2023-04-10T06:24:47;101599.81;;;5.17;99.54
55068;BME280;40965;52.368;9.712;2023-04-10T06:27:13;101602.56;;;5.22;98.82
55068;BME280;40965;52.368;9.712;2023-04-10T06:29:40;101592.28;;;5.26;98.58
55068;BME280;40965;52.368;9.712;2023-04-10T06:32:06;101595.09;;;5.34;98.57
55068;BME280;40965;52.368;9.712;2023-04-10T06:34:33;101592.75;;;5.43;97.90
55068;BME280;40965;52.368;9.712;2023-04-10T06:36:59;101587.81;;;5.53;97.46
55068;BME280;40965;52.368;9.712;2023-04-10T06:39:26;101587.38;;;5.69;96.54
55068;BME280;40965;52.368;9.712;2023-04-10T06:41:52;101588.84;;;5.93;95.69
55068;BME280;40965;52.368;9.712;2023-04-10T06:44:20;101587.06;;;6.25;95.41
55068;BME280;40965;52.368;9.712;2023-04-10T06:46:46;101582.69;;;6.61;92.72
55068;BME280;40965;52.368;9.712;2023-04-10T06:49:13;101586.19;;;7.03;92.56
55068;BME280;40965;52.368;9.712;2023-04-10T06:51:39;101583.63;;;7.49;90.31
55068;BME280;40965;52.368;9.712;2023-04-10T06:54:06;101578.09;;;7.81;88.16
55068;BME280;40965;52.368;9.712;2023-04-10T06:56:32;101582.06;;;8.12;86.11
55068;BME280;40965;52.368;9.712;2023-04-10T06:58:59;101579.84;;;8.37;83.36
55068;BME280;40965;52.368;9.712;2023-04-10T07:01:25;101574.28;;;8.70;82.38
55068;BME280;40965;52.368;9.712;2023-04-10T07:03:52;101568.34;;;8.84;80.82
55068;BME280;40965;52.368;9.712;2023-04-10T07:06:18;101566.16;;;9.16;80.70
55068;BME280;40965;52.368;9.712;2023-04-10T07:08:45;101565.56;;;9.40;78.55
55068;BME280;40965;52.368;9.712;2023-04-10T07:11:11;101564.03;;;9.64;77.82
55068;BME280;40965;52.368;9.712;2023-04-10T07:13:38;101562.47;;;9.83;76.81
55068;BME280;40965;52.368;9.712;2023-04-10T07:16:07;101555.75;;;10.18;74.92
55068;BME280;40965;52.368;9.712;2023-04-10T07:18:34;101557.81;;;10.59;73.52
55068;BME280;40965;52.368;9.712;2023-04-10T07:21:08;101555.38;;;11.01;71.63
55068;BME280;40965;52.368;9.712;2023-04-10T07:23:37;101549.31;;;11.23;70.12
55068;BME280;40965;52.368;9.712;2023-04-10T07:26:03;101552.06;;;11.67;68.18
55068;BME280;40965;52.368;9.712;2023-04-10T07:28:30;101543.28;;;11.83;67.00
55068;BME280;40965;52.368;9.712;2023-04-10T07:30:57;101544.22;;;12.02;66.74
55068;BME280;40965;52.368;9.712;2023-04-10T07:33:24;101534.59;;;12.14;64.34
55068;BME280;40965;52.368;9.712;2023-04-10T07:35:51;101538.06;;;12.36;64.55
55068;BME280;40965;52.368;9.712;2023-04-10T07:38:17;101535.31;;;12.71;64.25
55068;BME280;40965;52.368;9.712;2023-04-10T07:40:45;101538.63;;;13.14;62.29
55068;BME280;40965;52.368;9.712;2023-04-10T07:43:11;101527.13;;;13.32;60.14
55068;BME280;40965;52.368;9.712;2023-04-10T07:45:38;101532.13;;;13.72;60.44
55068;BME280;40965;52.368;9.712;2023-04-10T07:48:05;101527.25;;;14.23;57.14
55068;BME280;40965;52.368;9.712;2023-04-10T07:50:31;101520.47;;;14.83;56.52
55068;BME280;40965;52.368;9.712;2023-04-10T07:52:58;101523.53;;;15.19;55.21
55068;BME280;40965;52.368;9.712;2023-04-10T07:55:27;101522.22;;;15.47;52.72
55068;BME280;40965;52.368;9.712;2023-04-10T07:57:54;101520.19;;;15.64;53.06
55068;BME280;40965;52.368;9.712;2023-04-10T08:00:20;101520.22;;;15.63;51.66
55068;BME280;40965;52.368;9.712;2023-04-10T08:02:47;101518.88;;;15.93;49.53
55068;BME280;40965;52.368;9.712;2023-04-10T08:05:13;101509.59;;;16.19;49.62
55068;BME280;40965;52.368;9.712;2023-04-10T08:07:40;101506.44;;;16.47;48.59
55068;BME280;40965;52.368;9.712;2023-04-10T08:10:06;101506.88;;;17.11;45.69
55068;BME280;40965;52.368;9.712;2023-04-10T08:12:33;101507.06;;;17.41;44.70
55068;BME280;40965;52.368;9.712;2023-04-10T08:15:00;101507.56;;;17.93;44.82
55068;BME280;40965;52.368;9.712;2023-04-10T08:17:26;101499.41;;;18.35;42.46
55068;BME280;40965;52.368;9.712;2023-04-10T08:19:53;101494.41;;;18.55;40.60
55068;BME280;40965;52.368;9.712;2023-04-10T08:22:19;101494.47;;;18.83;41.60
55068;BME280;40965;52.368;9.712;2023-04-10T08:24:46;101495.03;;;18.64;39.39
55068;BME280;40965;52.368;9.712;2023-04-10T08:27:12;101489.22;;;18.20;41.16
55068;BME280;40965;52.368;9.712;2023-04-10T08:29:40;101484.56;;;18.60;40.73
55068;BME280;40965;52.368;9.712;2023-04-10T08:32:07;101484.53;;;19.20;39.71
55068;BME280;40965;52.368;9.712;2023-04-10T08:34:33;101483.16;;;19.34;38.12
55068;BME280;40965;52.368;9.712;2023-04-10T08:37:07;101482.31;;;19.34;37.75
55068;BME280;40965;52.368;9.712;2023-04-10T08:40:04;101478.28;;;19.76;37.71
55068;BME280;40965;52.368;9.712;2023-04-10T08:42:31;101479.28;;;20.24;37.03
55068;BME280;40965;52.368;9.712;2023-04-10T08:44:58;101471.00;;;21.03;35.08
55068;BME280;40965;52.368;9.712;2023-04-10T08:47:26;101464.69;;;21.27;34.22
55068;BME280;40965;52.368;9.712;2023-04-10T08:49:56;101464.00;;;21.00;34.97
55068;BME280;40965;52.368;9.712;2023-04-10T08:52:29;101466.09;;;20.70;34.84
55068;BME280;40965;52.368;9.712;2023-04-10T08:54:57;101468.78;;;20.44;34.77
55068;BME280;40965;52.368;9.712;2023-04-10T08:57:27;101462.72;;;21.10;34.99
55068;BME280;40965;52.368;9.712;2023-04-10T08:59:55;101452.72;;;21.60;34.14
55068;BME280;40965;52.368;9.712;2023-04-10T09:02:23;101456.97;;;22.26;32.46
55068;BME280;40965;52.368;9.712;2023-04-10T09:04:51;101459.59;;;21.86;32.65
55068;BME280;40965;52.368;9.712;2023-04-10T09:07:19;101447.66;;;21.95;32.37
55068;BME280;40965;52.368;9.712;2023-04-10T09:09:47;101448.28;;;22.60;31.79
55068;BME280;40965;52.368;9.712;2023-04-10T09:12:15;101449.38;;;22.37;31.30
55068;BME280;40965;52.368;9.712;2023-04-10T09:14:41;101438.22;;;21.88;31.01
55068;BME280;40965;52.368;9.712;2023-04-10T09:17:17;101436.59;;;22.04;31.48
55068;BME280;40965;52.368;9.712;2023-04-10T09:19:48;101427.50;;;21.89;31.38
55068;BME280;40965;52.368;9.712;2023-04-10T09:22:30;101424.59;;;22.14;31.17
55068;BME280;40965;52.368;9.712;2023-04-10T09:24:58;101418.31;;;22.16;31.41
55068;BME280;40965;52.368;9.712;2023-04-10T09:27:30;101413.44;;;22.83;30.83
55068;BME280;40965;52.368;9.712;2023-04-10T09:30:01;101396.84;;;23.12;29.23
55068;BME280;40965;52.368;9.712;2023-04-10T09:32:44;101395.03;;;23.50;28.80
55068;BME280;40965;52.368;9.712;2023-04-10T09:35:13;101387.94;;;23.66;28.72
55068;BME280;40965;52.368;9.712;2023-04-10T09:37:45;101383.72;;;23.44;29.02
55068;BME280;40965;52.368;9.712;2023-04-10T09:40:22;101377.53;;;23.07;29.77
55068;BME280;40965;52.368;9.712;2023-04-10T09:42:50;101374.69;;;23.47;28.32
55068;BME280;40965;52.368;9.712;2023-04-10T09:45:16;101350.06;;;23.05;29.24
55068;BME280;40965;52.368;9.712;2023-04-10T09:48:05;101366.16;;;22.67;29.39
55068;BME280;40965;52.368;9.712;2023-04-10T09:50:36;101358.84;;;22.71;28.91
55068;BME280;40965;52.368;9.712;2023-04-10T09:53:05;101352.63;;;23.07;28.44
55068;BME280;40965;52.368;9.712;2023-04-10T09:55:33;101350.91;;;22.88;28.23
55068;BME280;40965;52.368;9.712;2023-04-10T09:58:02;101351.06;;;23.03;28.47
55068;BME280;40965;52.368;9.712;2023-04-10T10:00:34;101337.13;;;23.33;28.04
55068;BME280;40965;52.368;9.712;2023-04-10T10:03:07;101336.31;;;23.82;27.76
55068;BME280;40965;52.368;9.712;2023-04-10T10:05:37;101336.94;;;23.87;27.04
55068;BME280;40965;52.368;9.712;2023-04-10T10:08:07;101339.00;;;24.31;27.22
55068;BME280;40965;52.368;9.712;2023-04-10T10:10:47;101330.69;;;24.04;26.69
55068;BME280;40965;52.368;9.712;2023-04-10T10:13:23;101312.72;;;23.56;27.25
55068;BME280;40965;52.368;9.712;2023-04-10T10:19:38;101318.72;;;24.11;26.92
55068;BME280;40965;52.368;9.712;2023-04-10T10:22:08;101302.84;;;24.40;26.91
55068;BME280;40965;52.368;9.712;2023-04-10T10:24:37;101299.03;;;24.76;25.29
55068;BME280;40965;52.368;9.712;2023-04-10T10:27:08;101291.28;;;25.02;24.42
55068;BME280;40965;52.368;9.712;2023-04-10T10:29:35;101288.44;;;25.19;24.87
55068;BME280;40965;52.368;9.712;2023-04-10T10:32:05;101283.59;;;24.96;24.19
55068;BME280;40965;52.368;9.712;2023-04-10T10:34:31;101284.13;;;25.17;24.14
55068;BME280;40965;52.368;9.712;2023-04-10T10:36:58;101281.66;;;25.28;24.24
55068;BME280;40965;52.368;9.712;2023-04-10T10:42:45;101265.97;;;25.80;22.87
55068;BME280;40965;52.368;9.712;2023-04-10T10:45:33;101255.56;;;26.31;21.86
55068;BME280;40965;52.368;9.712;2023-04-10T10:48:06;101250.91;;;27.01;22.23
55068;BME280;40965;52.368;9.712;2023-04-10T10:50:50;101250.53;;;27.46;21.28
55068;BME280;40965;52.368;9.712;2023-04-10T10:53:43;101243.41;;;28.08;20.90
55068;BME280;40965;52.368;9.712;2023-04-10T10:58:59;101236.78;;;26.71;21.58
55068;BME280;40965;52.368;9.712;2023-04-10T11:01:27;101228.78;;;26.17;22.83
55068;BME280;40965;52.368;9.712;2023-04-10T11:03:54;101224.84;;;26.63;22.36
55068;BME280;40965;52.368;9.712;2023-04-10T11:06:47;101220.72;;;26.84;22.32
55068;BME280;40965;52.368;9.712;2023-04-10T11:09:50;101209.97;;;27.36;21.83
55068;BME280;40965;52.368;9.712;2023-04-10T11:12:22;101220.00;;;26.28;22.70
55068;BME280;40965;52.368;9.712;2023-04-10T11:15:01;101205.94;;;25.68;23.46
55068;BME280;40965;52.368;9.712;2023-04-10T11:17:48;101196.03;;;26.65;22.78
55068;BME280;40965;52.368;9.712;2023-04-10T11:20:16;101181.34;;;27.35;21.35
55068;BME280;40965;52.368;9.712;2023-04-10T11:23:10;101190.19;;;26.85;21.78
55068;BME280;40965;52.368;9.712;2023-04-10T11:25:51;101174.94;;;26.99;21.72
55068;BME280;40965;52.368;9.712;2023-04-10T11:31:20;101160.38;;;26.63;22.07
55068;BME280;40965;52.368;9.712;2023-04-10T11:34:01;101152.56;;;26.72;22.35
55068;BME280;40965;52.368;9.712;2023-04-10T11:36:29;101143.22;;;26.65;22.50
55068;BME280;40965;52.368;9.712;2023-04-10T11:38:58;101133.78;;;26.85;22.57
55068;BME280;40965;52.368;9.712;2023-04-10T11:41:37;101126.63;;;27.36;22.24
55068;BME280;40965;52.368;9.712;2023-04-10T11:44:11;101126.44;;;27.26;22.50
55068;BME280;40965;52.368;9.712;2023-04-10T11:46:55;101116.09;;;27.46;22.17
55068;BME280;40965;52.368;9.712;2023-04-10T11:49:24;101115.13;;;27.71;22.00
55068;BME280;40965;52.368;9.712;2023-04-10T11:51:59;101102.81;;;27.55;22.17
55068;BME280;40965;52.368;9.712;2023-04-10T11:54:28;101098.44;;;27.42;22.31
55068;BME280;40965;52.368;9.712;2023-04-10T11:57:02;101099.25;;;27.68;22.07
55068;BME280;40965;52.368;9.712;2023-04-10T11:59:32;101105.56;;;27.17;22.47
55068;BME280;40965;52.368;9.712;2023-04-10T12:02:06;101098.53;;;27.03;22.92
55068;BME280;40965;52.368;9.712;2023-04-10T12:04:34;101095.91;;;27.64;22.72
55068;BME280;40965;52.368;9.712;2023-04-10T12:07:02;101098.28;;;27.19;23.05
55068;BME280;40965;52.368;9.712;2023-04-10T12:09:34;101085.31;;;26.87;22.34
55068;BME280;40965;52.368;9.712;2023-04-10T12:12:08;101091.22;;;26.40;23.42
55068;BME280;40965;52.368;9.712;2023-04-10T12:14:49;101071.34;;;26.56;22.88
55068;BME280;40965;52.368;9.712;2023-04-10T12:17:16;101073.88;;;26.19;23.63
55068;BME280;40965;52.368;9.712;2023-04-10T12:19:44;101071.88;;;26.35;23.57
55068;BME280;40965;52.368;9.712;2023-04-10T12:22:11;101066.63;;;26.34;23.64
55068;BME280;40965;52.368;9.712;2023-04-10T12:24:45;101066.94;;;26.02;23.26
55068;BME280;40965;52.368;9.712;2023-04-10T12:27:27;101054.72;;;24.87;24.23
55068;BME280;40965;52.368;9.712;2023-04-10T12:29:55;101060.34;;;24.82;24.42
55068;BME280;40965;52.368;9.712;2023-04-10T12:32:24;101060.94;;;24.73;24.67
55068;BME280;40965;52.368;9.712;2023-04-10T12:34:56;101049.59;;;24.39;24.74
55068;BME280;40965;52.368;9.712;2023-04-10T12:37:47;101045.84;;;23.34;25.88
55068;BME280;40965;52.368;9.712;2023-04-10T12:40:15;101045.91;;;23.01;26.22
55068;BME280;40965;52.368;9.712;2023-04-10T12:42:42;101036.13;;;22.68;26.46
55068;BME280;40965;52.368;9.712;2023-04-10T12:45:10;101050.75;;;22.25;26.62
55068;BME280;40965;52.368;9.712;2023-04-10T12:47:43;101048.88;;;22.10;26.95
55068;BME280;40965;52.368;9.712;2023-04-10T12:50:17;101035.81;;;22.56;26.76
55068;BME280;40965;52.368;9.712;2023-04-10T12:52:45;101039.09;;;22.61;26.34
55068;BME280;40965;52.368;9.712;2023-04-10T12:55:27;101035.63;;;22.77;26.22
55068;BME280;40965;52.368;9.712;2023-04-10T12:57:54;101038.47;;;22.90;25.94
55068;BME280;40965;52.368;9.712;2023-04-10T13:00:24;101037.06;;;22.83;26.21
55068;BME280;40965;52.368;9.712;2023-04-10T13:02:51;101024.53;;;22.51;26.64
55068;BME280;40965;52.368;9.712;2023-04-10T13:05:18;101014.91;;;22.13;27.09
55068;BME280;40965;52.368;9.712;2023-04-10T13:07:45;101012.63;;;21.34;28.30
55068;BME280;40965;52.368;9.712;2023-04-10T13:10:16;101021.81;;;21.27;28.59
55068;BME280;40965;52.368;9.712;2023-04-10T13:12:43;101016.38;;;20.92;28.94
55068;BME280;40965;52.368;9.712;2023-04-10T13:15:09;101020.88;;;20.50;29.37
55068;BME280;40965;52.368;9.712;2023-04-10T13:17:36;101001.63;;;20.04;29.77